sensor_id;sensor_type;location;lat;lon;timestamp;P1;durP1;ratioP1;P2;durP2;ratioP2
19173;SDS011;9719;49.322;8.536;2023-03-31T00:02:38;3.33;;;1.95;;
19173;SDS011;9719;49.322;8.536;2023-03-31T00:07:41;6.65;;;1.70;;
19173;SDS011;9719;49.322;8.536;2023-03-31T00:12:45;6.45;;;2.90;;
19173;SDS011;9719;49.322;8.536;2023-03-31T00:17:47;6.32;;;2.10;;
19173;SDS011;9719;49.322;8.536;2023-03-31T00:22:50;2.75;;;1.90;;
19173;SDS011;9719;49.322;8.536;2023-03-31T00:27:53;2.30;;;1.80;;
19173;SDS011;9719;49.322;8.536;2023-03-31T00:32:55;4.30;;;2.05;;
19173;SDS011;9719;49.322;8.536;2023-03-31T00:37:58;3.88;;;1.70;;
19173;SDS011;9719;49.322;8.536;2023-03-31T00:43:00;4.88;;;1.80;;
19173;SDS011;9719;49.322;8.536;2023-03-31T00:48:04;4.35;;;2.42;;
19173;SDS011;9719;49.322;8.536;2023-03-31T00:53:10;4.68;;;2.55;;
19173;SDS011;9719;49.322;8.536;2023-03-31T00:58:16;3.83;;;2.08;;
19173;SDS011;9719;49.322;8.536;2023-03-31T01:03:20;5.15;;;2.25;;
19173;SDS011;9719;49.322;8.536;2023-03-31T01:08:24;4.20;;;2.80;;
19173;SDS011;9719;49.322;8.536;2023-03-31T01:13:27;4.70;;;1.98;;
19173;SDS011;9719;49.322;8.536;2023-03-31T01:18:31;7.60;;;2.28;;
19173;SDS011;9719;49.322;8.536;2023-03-31T01:29:21;4.32;;;1.98;;
19173;SDS011;9719;49.322;8.536;2023-03-31T01:34:49;3.50;;;1.55;;
19173;SDS011;9719;49.322;8.536;2023-03-31T01:40:09;7.18;;;1.90;;
19173;SDS011;9719;49.322;8.536;2023-03-31T01:45:31;2.95;;;2.65;;
19173;SDS011;9719;49.322;8.536;2023-03-31T01:50:42;3.50;;;2.45;;
19173;SDS011;9719;49.322;8.536;2023-03-31T01:55:49;4.38;;;1.58;;
19173;SDS011;9719;49.322;8.536;2023-03-31T02:00:58;2.78;;;1.70;;
19173;SDS011;9719;49.322;8.536;2023-03-31T02:06:04;2.47;;;1.55;;
19173;SDS011;9719;49.322;8.536;2023-03-31T02:11:11;3.63;;;1.58;;
19173;SDS011;9719;49.322;8.536;2023-03-31T02:16:15;5.72;;;1.98;;
19173;SDS011;9719;49.322;8.536;2023-03-31T02:21:23;3.90;;;1.90;;
19173;SDS011;9719;49.322;8.536;2023-03-31T02:26:27;3.83;;;1.50;;
19173;SDS011;9719;49.322;8.536;2023-03-31T02:31:33;7.85;;;2.47;;
19173;SDS011;9719;49.322;8.536;2023-03-31T02:36:41;4.30;;;1.77;;
19173;SDS011;9719;49.322;8.536;2023-03-31T02:41:47;3.65;;;1.70;;
19173;SDS011;9719;49.322;8.536;2023-03-31T02:46:48;8.18;;;2.63;;
19173;SDS011;9719;49.322;8.536;2023-03-31T02:51:57;8.50;;;3.70;;
19173;SDS011;9719;49.322;8.536;2023-03-31T02:57:18;8.93;;;5.13;;
19173;SDS011;9719;49.322;8.536;2023-03-31T03:02:44;8.15;;;2.88;;
19173;SDS011;9719;49.322;8.536;2023-03-31T03:07:57;8.50;;;2.65;;
19173;SDS011;9719;49.322;8.536;2023-03-31T03:13:14;5.40;;;2.92;;
19173;SDS011;9719;49.322;8.536;2023-03-31T03:18:20;3.97;;;2.38;;
19173;SDS011;9719;49.322;8.536;2023-03-31T03:23:22;3.15;;;1.70;;
19173;SDS011;9719;49.322;8.536;2023-03-31T03:28:26;5.82;;;3.22;;
19173;SDS011;9719;49.322;8.536;2023-03-31T03:33:27;7.82;;;4.18;;
19173;SDS011;9719;49.322;8.536;2023-03-31T03:38:29;7.95;;;3.35;;
19173;SDS011;9719;49.322;8.536;2023-03-31T03:43:32;7.50;;;2.10;;
19173;SDS011;9719;49.322;8.536;2023-03-31T03:48:34;2.97;;;1.50;;
19173;SDS011;9719;49.322;8.536;2023-03-31T03:53:36;2.58;;;1.60;;
19173;SDS011;9719;49.322;8.536;2023-03-31T03:58:39;4.35;;;2.17;;
19173;SDS011;9719;49.322;8.536;2023-03-31T04:03:41;4.60;;;2.20;;
19173;SDS011;9719;49.322;8.536;2023-03-31T04:08:43;1.63;;;1.40;;
19173;SDS011;9719;49.322;8.536;2023-03-31T04:13:46;2.10;;;1.77;;
19173;SDS011;9719;49.322;8.536;2023-03-31T04:18:48;6.65;;;2.53;;
19173;SDS011;9719;49.322;8.536;2023-03-31T04:23:52;3.85;;;2.05;;
19173;SDS011;9719;49.322;8.536;2023-03-31T04:29:02;3.60;;;2.10;;
19173;SDS011;9719;49.322;8.536;2023-03-31T04:34:04;4.68;;;1.70;;
19173;SDS011;9719;49.322;8.536;2023-03-31T04:39:12;2.50;;;1.75;;
19173;SDS011;9719;49.322;8.536;2023-03-31T04:44:16;3.42;;;2.08;;
19173;SDS011;9719;49.322;8.536;2023-03-31T04:49:17;6.53;;;1.85;;
19173;SDS011;9719;49.322;8.536;2023-03-31T04:54:19;3.28;;;1.90;;
19173;SDS011;9719;49.322;8.536;2023-03-31T04:59:23;5.93;;;2.50;;
19173;SDS011;9719;49.322;8.536;2023-03-31T05:04:24;2.92;;;2.15;;
19173;SDS011;9719;49.322;8.536;2023-03-31T05:09:26;3.33;;;2.25;;
19173;SDS011;9719;49.322;8.536;2023-03-31T05:14:29;5.05;;;2.63;;
19173;SDS011;9719;49.322;8.536;2023-03-31T05:19:31;4.03;;;2.10;;
19173;SDS011;9719;49.322;8.536;2023-03-31T05:24:33;6.28;;;3.15;;
19173;SDS011;9719;49.322;8.536;2023-03-31T05:29:37;5.65;;;1.95;;
19173;SDS011;9719;49.322;8.536;2023-03-31T05:34:39;9.18;;;2.05;;
19173;SDS011;9719;49.322;8.536;2023-03-31T05:39:42;3.53;;;2.67;;
19173;SDS011;9719;49.322;8.536;2023-03-31T05:44:47;4.85;;;3.65;;
19173;SDS011;9719;49.322;8.536;2023-03-31T05:49:49;5.57;;;2.65;;
19173;SDS011;9719;49.322;8.536;2023-03-31T05:54:52;6.03;;;2.70;;
19173;SDS011;9719;49.322;8.536;2023-03-31T05:59:55;3.25;;;2.30;;
19173;SDS011;9719;49.322;8.536;2023-03-31T06:04:57;6.53;;;2.60;;
19173;SDS011;9719;49.322;8.536;2023-03-31T06:09:59;5.03;;;2.70;;
19173;SDS011;9719;49.322;8.536;2023-03-31T06:15:02;12.32;;;4.05;;
19173;SDS011;9719;49.322;8.536;2023-03-31T06:20:05;5.63;;;2.55;;
19173;SDS011;9719;49.322;8.536;2023-03-31T06:25:08;3.97;;;2.85;;
19173;SDS011;9719;49.322;8.536;2023-03-31T06:30:12;5.10;;;3.15;;
19173;SDS011;9719;49.322;8.536;2023-03-31T06:35:14;6.28;;;3.55;;
19173;SDS011;9719;49.322;8.536;2023-03-31T06:40:16;3.92;;;2.70;;
19173;SDS011;9719;49.322;8.536;2023-03-31T06:45:19;7.68;;;4.57;;
19173;SDS011;9719;49.322;8.536;2023-03-31T06:50:21;8.18;;;6.22;;
19173;SDS011;9719;49.322;8.536;2023-03-31T06:55:23;8.60;;;4.05;;
19173;SDS011;9719;49.322;8.536;2023-03-31T07:00:26;7.80;;;3.70;;
19173;SDS011;9719;49.322;8.536;2023-03-31T07:05:28;5.05;;;3.95;;
19173;SDS011;9719;49.322;8.536;2023-03-31T07:10:31;9.65;;;4.40;;
19173;SDS011;9719;49.322;8.536;2023-03-31T07:15:34;13.60;;;4.00;;
19173;SDS011;9719;49.322;8.536;2023-03-31T07:20:36;5.45;;;3.58;;
19173;SDS011;9719;49.322;8.536;2023-03-31T07:25:38;4.47;;;3.47;;
19173;SDS011;9719;49.322;8.536;2023-03-31T07:30:41;4.72;;;3.97;;
19173;SDS011;9719;49.322;8.536;2023-03-31T07:35:43;7.65;;;4.40;;
19173;SDS011;9719;49.322;8.536;2023-03-31T07:40:45;5.05;;;3.17;;
19173;SDS011;9719;49.322;8.536;2023-03-31T07:45:48;4.82;;;3.15;;
19173;SDS011;9719;49.322;8.536;2023-03-31T07:50:50;4.75;;;3.28;;
19173;SDS011;9719;49.322;8.536;2023-03-31T07:55:52;3.85;;;3.45;;
19173;SDS011;9719;49.322;8.536;2023-03-31T08:00:56;8.10;;;3.42;;
19173;SDS011;9719;49.322;8.536;2023-03-31T08:06:00;5.65;;;2.88;;
19173;SDS011;9719;49.322;8.536;2023-03-31T08:11:01;8.40;;;4.03;;
19173;SDS011;9719;49.322;8.536;2023-03-31T08:16:05;5.38;;;3.67;;
19173;SDS011;9719;49.322;8.536;2023-03-31T08:21:07;7.68;;;3.00;;
19173;SDS011;9719;49.322;8.536;2023-03-31T08:26:10;6.78;;;2.63;;
19173;SDS011;9719;49.322;8.536;2023-03-31T08:31:22;7.38;;;2.63;;
19173;SDS011;9719;49.322;8.536;2023-03-31T08:36:25;5.25;;;2.70;;
19173;SDS011;9719;49.322;8.536;2023-03-31T08:41:33;3.20;;;2.15;;
19173;SDS011;9719;49.322;8.536;2023-03-31T08:46:43;2.50;;;2.30;;
19173;SDS011;9719;49.322;8.536;2023-03-31T08:51:46;4.47;;;2.35;;
19173;SDS011;9719;49.322;8.536;2023-03-31T08:56:50;2.30;;;2.10;;
19173;SDS011;9719;49.322;8.536;2023-03-31T09:01:55;3.33;;;1.92;;
19173;SDS011;9719;49.322;8.536;2023-03-31T09:07:10;3.47;;;2.03;;
19173;SDS011;9719;49.322;8.536;2023-03-31T09:12:19;4.32;;;2.60;;
19173;SDS011;9719;49.322;8.536;2023-03-31T09:17:25;3.67;;;2.03;;
19173;SDS011;9719;49.322;8.536;2023-03-31T09:22:30;2.42;;;1.77;;
19173;SDS011;9719;49.322;8.536;2023-03-31T09:27:35;4.97;;;2.05;;
19173;SDS011;9719;49.322;8.536;2023-03-31T09:32:42;3.67;;;2.20;;
19173;SDS011;9719;49.322;8.536;2023-03-31T09:37:48;3.85;;;2.10;;
19173;SDS011;9719;49.322;8.536;2023-03-31T09:42:53;2.97;;;1.50;;
19173;SDS011;9719;49.322;8.536;2023-03-31T09:48:00;3.05;;;1.60;;
19173;SDS011;9719;49.322;8.536;2023-03-31T09:53:06;8.68;;;2.60;;
19173;SDS011;9719;49.322;8.536;2023-03-31T09:58:15;4.13;;;1.65;;
19173;SDS011;9719;49.322;8.536;2023-03-31T10:03:19;6.45;;;2.10;;
19173;SDS011;9719;49.322;8.536;2023-03-31T10:08:26;5.85;;;1.75;;
19173;SDS011;9719;49.322;8.536;2023-03-31T10:13:33;4.15;;;2.05;;
19173;SDS011;9719;49.322;8.536;2023-03-31T10:18:42;5.32;;;1.75;;
19173;SDS011;9719;49.322;8.536;2023-03-31T10:23:44;4.28;;;1.70;;
19173;SDS011;9719;49.322;8.536;2023-03-31T10:28:49;6.95;;;2.78;;
19173;SDS011;9719;49.322;8.536;2023-03-31T10:33:53;3.67;;;1.95;;
19173;SDS011;9719;49.322;8.536;2023-03-31T10:38:57;6.15;;;2.60;;
19173;SDS011;9719;49.322;8.536;2023-03-31T10:44:00;4.72;;;1.20;;
19173;SDS011;9719;49.322;8.536;2023-03-31T10:49:09;5.80;;;1.85;;
19173;SDS011;9719;49.322;8.536;2023-03-31T10:54:16;1.75;;;1.30;;
19173;SDS011;9719;49.322;8.536;2023-03-31T10:59:28;3.72;;;1.88;;
19173;SDS011;9719;49.322;8.536;2023-03-31T11:04:52;3.15;;;1.48;;
19173;SDS011;9719;49.322;8.536;2023-03-31T11:10:02;1.30;;;1.15;;
19173;SDS011;9719;49.322;8.536;2023-03-31T11:15:18;2.35;;;0.77;;
19173;SDS011;9719;49.322;8.536;2023-03-31T11:20:27;2.38;;;1.30;;
19173;SDS011;9719;49.322;8.536;2023-03-31T11:25:37;3.95;;;1.83;;
19173;SDS011;9719;49.322;8.536;2023-03-31T11:30:48;1.80;;;1.15;;
19173;SDS011;9719;49.322;8.536;2023-03-31T11:36:00;5.88;;;1.42;;
19173;SDS011;9719;49.322;8.536;2023-03-31T11:41:30;3.40;;;1.33;;
19173;SDS011;9719;49.322;8.536;2023-03-31T11:46:37;1.98;;;1.63;;
19173;SDS011;9719;49.322;8.536;2023-03-31T11:51:46;3.90;;;1.77;;
19173;SDS011;9719;49.322;8.536;2023-03-31T11:56:51;2.65;;;1.10;;
19173;SDS011;9719;49.322;8.536;2023-03-31T12:01:56;3.28;;;1.38;;
19173;SDS011;9719;49.322;8.536;2023-03-31T12:07:10;3.05;;;1.33;;
19173;SDS011;9719;49.322;8.536;2023-03-31T12:12:26;2.65;;;1.15;;
19173;SDS011;9719;49.322;8.536;2023-03-31T12:17:30;4.35;;;1.77;;
19173;SDS011;9719;49.322;8.536;2023-03-31T12:22:36;3.95;;;1.38;;
19173;SDS011;9719;49.322;8.536;2023-03-31T12:27:42;3.60;;;1.38;;
19173;SDS011;9719;49.322;8.536;2023-03-31T12:32:49;1.75;;;0.85;;
19173;SDS011;9719;49.322;8.536;2023-03-31T12:38:02;2.88;;;1.27;;
19173;SDS011;9719;49.322;8.536;2023-03-31T12:48:54;5.18;;;1.33;;
19173;SDS011;9719;49.322;8.536;2023-03-31T12:54:10;5.63;;;1.40;;
19173;SDS011;9719;49.322;8.536;2023-03-31T12:59:24;1.60;;;0.88;;
19173;SDS011;9719;49.322;8.536;2023-03-31T13:04:32;4.25;;;1.20;;
19173;SDS011;9719;49.322;8.536;2023-03-31T13:09:41;2.30;;;1.50;;
19173;SDS011;9719;49.322;8.536;2023-03-31T13:14:46;4.60;;;1.13;;
19173;SDS011;9719;49.322;8.536;2023-03-31T13:19:50;2.55;;;0.85;;
19173;SDS011;9719;49.322;8.536;2023-03-31T13:24:54;3.67;;;0.82;;
19173;SDS011;9719;49.322;8.536;2023-03-31T13:30:50;2.28;;;1.48;;
19173;SDS011;9719;49.322;8.536;2023-03-31T13:35:56;0.88;;;0.60;;
19173;SDS011;9719;49.322;8.536;2023-03-31T13:41:17;3.13;;;0.75;;
19173;SDS011;9719;49.322;8.536;2023-03-31T13:46:39;1.67;;;0.60;;
19173;SDS011;9719;49.322;8.536;2023-03-31T13:52:08;1.30;;;0.95;;
19173;SDS011;9719;49.322;8.536;2023-03-31T13:57:28;1.88;;;0.70;;
19173;SDS011;9719;49.322;8.536;2023-03-31T14:02:45;1.88;;;0.60;;
19173;SDS011;9719;49.322;8.536;2023-03-31T14:07:57;1.52;;;0.80;;
19173;SDS011;9719;49.322;8.536;2023-03-31T14:13:05;2.55;;;1.60;;
19173;SDS011;9719;49.322;8.536;2023-03-31T14:18:09;2.83;;;1.00;;
19173;SDS011;9719;49.322;8.536;2023-03-31T14:23:17;2.55;;;1.15;;
19173;SDS011;9719;49.322;8.536;2023-03-31T14:28:42;2.92;;;0.88;;
19173;SDS011;9719;49.322;8.536;2023-03-31T14:34:03;2.30;;;1.27;;
19173;SDS011;9719;49.322;8.536;2023-03-31T14:39:19;2.72;;;0.93;;
19173;SDS011;9719;49.322;8.536;2023-03-31T14:44:24;0.93;;;0.70;;
19173;SDS011;9719;49.322;8.536;2023-03-31T14:49:26;3.38;;;1.10;;
19173;SDS011;9719;49.322;8.536;2023-03-31T14:54:34;2.00;;;1.23;;
19173;SDS011;9719;49.322;8.536;2023-03-31T14:59:38;1.88;;;0.80;;
19173;SDS011;9719;49.322;8.536;2023-03-31T15:04:40;2.42;;;0.90;;
19173;SDS011;9719;49.322;8.536;2023-03-31T15:09:47;1.45;;;0.90;;
19173;SDS011;9719;49.322;8.536;2023-03-31T15:14:53;1.58;;;1.00;;
19173;SDS011;9719;49.322;8.536;2023-03-31T15:19:58;3.97;;;1.63;;
19173;SDS011;9719;49.322;8.536;2023-03-31T15:25:03;1.60;;;0.70;;
19173;SDS011;9719;49.322;8.536;2023-03-31T15:30:08;2.65;;;0.85;;
19173;SDS011;9719;49.322;8.536;2023-03-31T15:35:19;2.65;;;0.90;;
19173;SDS011;9719;49.322;8.536;2023-03-31T15:40:23;1.23;;;0.80;;
19173;SDS011;9719;49.322;8.536;2023-03-31T15:45:43;1.50;;;1.02;;
19173;SDS011;9719;49.322;8.536;2023-03-31T15:50:47;2.10;;;0.80;;
19173;SDS011;9719;49.322;8.536;2023-03-31T15:55:52;2.50;;;1.13;;
19173;SDS011;9719;49.322;8.536;2023-03-31T16:01:01;2.60;;;0.80;;
19173;SDS011;9719;49.322;8.536;2023-03-31T16:06:06;2.15;;;1.10;;
19173;SDS011;9719;49.322;8.536;2023-03-31T16:11:16;3.78;;;1.35;;
19173;SDS011;9719;49.322;8.536;2023-03-31T16:16:22;4.03;;;1.75;;
19173;SDS011;9719;49.322;8.536;2023-03-31T16:21:27;3.08;;;1.08;;
19173;SDS011;9719;49.322;8.536;2023-03-31T16:26:33;2.28;;;1.00;;
19173;SDS011;9719;49.322;8.536;2023-03-31T16:31:39;5.32;;;2.25;;
19173;SDS011;9719;49.322;8.536;2023-03-31T16:36:41;2.53;;;1.20;;
19173;SDS011;9719;49.322;8.536;2023-03-31T16:41:43;1.50;;;1.40;;
19173;SDS011;9719;49.322;8.536;2023-03-31T16:46:46;2.88;;;1.33;;
19173;SDS011;9719;49.322;8.536;2023-03-31T16:51:48;1.35;;;0.90;;
19173;SDS011;9719;49.322;8.536;2023-03-31T16:56:51;1.55;;;0.82;;
19173;SDS011;9719;49.322;8.536;2023-03-31T17:01:54;1.45;;;0.75;;
19173;SDS011;9719;49.322;8.536;2023-03-31T17:06:56;1.60;;;1.00;;
19173;SDS011;9719;49.322;8.536;2023-03-31T17:11:59;0.70;;;0.70;;
19173;SDS011;9719;49.322;8.536;2023-03-31T17:17:13;1.30;;;0.93;;
19173;SDS011;9719;49.322;8.536;2023-03-31T17:22:18;0.98;;;0.77;;
19173;SDS011;9719;49.322;8.536;2023-03-31T17:27:20;0.90;;;0.90;;
19173;SDS011;9719;49.322;8.536;2023-03-31T17:32:23;0.80;;;0.80;;
19173;SDS011;9719;49.322;8.536;2023-03-31T17:37:25;0.73;;;0.73;;
19173;SDS011;9719;49.322;8.536;2023-03-31T17:42:27;0.77;;;0.77;;
19173;SDS011;9719;49.322;8.536;2023-03-31T17:47:31;0.95;;;0.80;;
19173;SDS011;9719;49.322;8.536;2023-03-31T17:52:33;1.10;;;0.80;;
19173;SDS011;9719;49.322;8.536;2023-03-31T17:57:35;1.77;;;1.20;;
19173;SDS011;9719;49.322;8.536;2023-03-31T18:02:40;0.80;;;0.80;;
19173;SDS011;9719;49.322;8.536;2023-03-31T18:07:43;0.90;;;0.90;;
19173;SDS011;9719;49.322;8.536;2023-03-31T18:12:45;1.30;;;1.20;;
19173;SDS011;9719;49.322;8.536;2023-03-31T18:17:48;0.88;;;0.88;;
19173;SDS011;9719;49.322;8.536;2023-03-31T18:22:50;1.13;;;0.88;;
19173;SDS011;9719;49.322;8.536;2023-03-31T18:27:51;1.27;;;0.82;;
19173;SDS011;9719;49.322;8.536;2023-03-31T18:32:55;1.88;;;1.00;;
19173;SDS011;9719;49.322;8.536;2023-03-31T18:37:57;1.90;;;1.13;;
19173;SDS011;9719;49.322;8.536;2023-03-31T18:42:59;1.60;;;0.93;;
19173;SDS011;9719;49.322;8.536;2023-03-31T18:48:03;0.68;;;0.68;;
19173;SDS011;9719;49.322;8.536;2023-03-31T18:53:05;1.17;;;1.00;;
19173;SDS011;9719;49.322;8.536;2023-03-31T19:03:33;1.08;;;1.02;;
19173;SDS011;9719;49.322;8.536;2023-03-31T19:08:35;0.93;;;0.93;;
19173;SDS011;9719;49.322;8.536;2023-03-31T19:13:38;2.28;;;2.08;;
19173;SDS011;9719;49.322;8.536;2023-03-31T19:18:42;1.85;;;1.30;;
19173;SDS011;9719;49.322;8.536;2023-03-31T19:23:47;3.85;;;2.17;;
19173;SDS011;9719;49.322;8.536;2023-03-31T19:29:06;1.98;;;1.08;;
19173;SDS011;9719;49.322;8.536;2023-03-31T19:34:10;0.95;;;0.93;;
19173;SDS011;9719;49.322;8.536;2023-03-31T19:39:12;2.28;;;1.05;;
19173;SDS011;9719;49.322;8.536;2023-03-31T19:44:13;3.22;;;1.45;;
19173;SDS011;9719;49.322;8.536;2023-03-31T20:00:56;1.05;;;0.90;;
19173;SDS011;9719;49.322;8.536;2023-03-31T20:06:02;1.77;;;1.20;;
19173;SDS011;9719;49.322;8.536;2023-03-31T20:11:06;0.82;;;0.82;;
19173;SDS011;9719;49.322;8.536;2023-03-31T20:16:12;2.17;;;1.25;;
19173;SDS011;9719;49.322;8.536;2023-03-31T20:21:16;0.95;;;0.95;;
19173;SDS011;9719;49.322;8.536;2023-03-31T20:26:20;1.30;;;0.98;;
19173;SDS011;9719;49.322;8.536;2023-03-31T20:31:25;1.58;;;1.27;;
19173;SDS011;9719;49.322;8.536;2023-03-31T20:36:30;1.63;;;1.00;;
19173;SDS011;9719;49.322;8.536;2023-03-31T20:41:38;2.55;;;1.30;;
19173;SDS011;9719;49.322;8.536;2023-03-31T20:46:42;1.85;;;1.42;;
19173;SDS011;9719;49.322;8.536;2023-03-31T20:51:44;1.60;;;1.45;;
19173;SDS011;9719;49.322;8.536;2023-03-31T20:56:51;2.15;;;1.52;;
19173;SDS011;9719;49.322;8.536;2023-03-31T21:02:48;1.58;;;1.00;;
19173;SDS011;9719;49.322;8.536;2023-03-31T21:07:52;3.28;;;1.45;;
19173;SDS011;9719;49.322;8.536;2023-03-31T21:12:55;4.32;;;1.27;;
19173;SDS011;9719;49.322;8.536;2023-03-31T21:17:59;1.42;;;1.10;;
19173;SDS011;9719;49.322;8.536;2023-03-31T21:23:01;3.35;;;1.35;;
19173;SDS011;9719;49.322;8.536;2023-03-31T21:28:03;1.40;;;0.90;;
19173;SDS011;9719;49.322;8.536;2023-03-31T21:33:06;2.95;;;1.20;;
19173;SDS011;9719;49.322;8.536;2023-03-31T21:38:08;2.38;;;1.40;;
19173;SDS011;9719;49.322;8.536;2023-03-31T21:43:10;1.63;;;1.10;;
19173;SDS011;9719;49.322;8.536;2023-03-31T21:48:13;2.90;;;1.50;;
19173;SDS011;9719;49.322;8.536;2023-03-31T21:53:15;3.30;;;1.60;;
19173;SDS011;9719;49.322;8.536;2023-03-31T21:58:17;3.53;;;1.77;;
19173;SDS011;9719;49.322;8.536;2023-03-31T22:03:21;3.20;;;1.63;;
19173;SDS011;9719;49.322;8.536;2023-03-31T22:08:25;1.58;;;1.13;;
19173;SDS011;9719;49.322;8.536;2023-03-31T22:13:27;2.88;;;1.67;;
19173;SDS011;9719;49.322;8.536;2023-03-31T22:18:31;1.73;;;0.95;;
19173;SDS011;9719;49.322;8.536;2023-03-31T22:23:32;2.00;;;1.00;;
19173;SDS011;9719;49.322;8.536;2023-03-31T22:28:34;9.25;;;1.83;;
19173;SDS011;9719;49.322;8.536;2023-03-31T22:33:37;3.15;;;1.52;;
19173;SDS011;9719;49.322;8.536;2023-03-31T22:38:39;2.53;;;1.40;;
19173;SDS011;9719;49.322;8.536;2023-03-31T22:43:42;4.15;;;1.70;;
19173;SDS011;9719;49.322;8.536;2023-03-31T22:48:47;3.35;;;1.40;;
19173;SDS011;9719;49.322;8.536;2023-03-31T22:53:50;1.48;;;1.08;;
19173;SDS011;9719;49.322;8.536;2023-03-31T22:58:54;1.15;;;1.00;;
19173;SDS011;9719;49.322;8.536;2023-03-31T23:03:58;2.63;;;1.00;;
19173;SDS011;9719;49.322;8.536;2023-03-31T23:09:00;1.15;;;1.00;;
19173;SDS011;9719;49.322;8.536;2023-03-31T23:14:02;1.05;;;0.90;;
19173;SDS011;9719;49.322;8.536;2023-03-31T23:19:06;2.28;;;0.90;;
19173;SDS011;9719;49.322;8.536;2023-03-31T23:24:08;1.67;;;0.80;;
19173;SDS011;9719;49.322;8.536;2023-03-31T23:29:11;0.90;;;0.90;;
19173;SDS011;9719;49.322;8.536;2023-03-31T23:34:14;1.38;;;1.30;;
19173;SDS011;9719;49.322;8.536;2023-03-31T23:39:16;1.85;;;0.80;;
19173;SDS011;9719;49.322;8.536;2023-03-31T23:44:18;1.83;;;0.90;;
19173;SDS011;9719;49.322;8.536;2023-03-31T23:49:21;0.82;;;0.82;;
19173;SDS011;9719;49.322;8.536;2023-03-31T23:54:26;1.02;;;0.98;;
19173;SDS011;9719;49.322;8.536;2023-03-31T23:59:28;6.03;;;2.05;;
